createdAt,value
2022-09-19T00:01:53.959Z,9.07
2022-09-19T00:04:28.445Z,11.73
2022-09-19T00:06:56.356Z,7.82
2022-09-19T00:09:32.921Z,11.60
2022-09-19T00:12:00.677Z,10.23
2022-09-19T00:14:34.660Z,9.30
2022-09-19T00:17:07.411Z,9.30
2022-09-19T00:19:36.609Z,7.47
2022-09-19T00:22:03.639Z,11.37
2022-09-19T00:24:50.957Z,5.63
2022-09-19T00:27:26.445Z,9.70
2022-09-19T00:29:54.889Z,12.83
2022-09-19T00:32:23.985Z,10.27
2022-09-19T00:34:55.627Z,12.87
2022-09-19T00:37:23.087Z,11.83
2022-09-19T00:39:51.761Z,11.70
2022-09-19T00:42:23.018Z,16.40
2022-09-19T00:45:04.513Z,6.60
2022-09-19T00:47:43.510Z,9.60
2022-09-19T00:50:25.186Z,11.67
2022-09-19T00:53:14.703Z,7.97
2022-09-19T00:55:43.103Z,9.10
2022-09-19T00:58:29.114Z,6.27
2022-09-19T01:00:58.670Z,7.70
2022-09-19T01:03:27.613Z,9.70
2022-09-19T01:06:33.300Z,9.53
2022-09-19T01:09:37.736Z,9.10
2022-09-19T01:12:10.379Z,12.03
2022-09-19T01:15:21.000Z,6.70
2022-09-19T01:17:49.599Z,5.97
2022-09-19T01:20:44.527Z,9.97
2022-09-19T01:23:38.144Z,8.07
2022-09-19T01:26:38.928Z,9.93
2022-09-19T01:29:33.703Z,6.95
2022-09-19T01:32:03.307Z,10.13
2022-09-19T01:34:38.861Z,8.40
2022-09-19T01:37:18.507Z,8.13
2022-09-19T01:39:51.779Z,8.97
2022-09-19T01:42:22.174Z,7.83
2022-09-19T01:44:49.631Z,5.43
2022-09-19T01:47:57.881Z,7.20
2022-09-19T01:51:11.270Z,9.33
2022-09-19T01:53:48.051Z,7.57
2022-09-19T01:56:50.242Z,7.70
2022-09-19T02:00:00.722Z,6.87
2022-09-19T02:02:45.241Z,7.00
2022-09-19T02:05:28.763Z,6.30
2022-09-19T02:08:15.181Z,7.27
2022-09-19T02:10:51.533Z,10.60
2022-09-19T02:13:24.193Z,6.63
2022-09-19T02:16:01.143Z,11.43
2022-09-19T02:18:35.962Z,9.63
2022-09-19T02:21:12.652Z,7.30
2022-09-19T02:23:48.208Z,7.97
2022-09-19T02:26:20.700Z,11.13
2022-09-19T02:28:55.470Z,6.77
2022-09-19T02:31:28.156Z,7.90
2022-09-19T02:34:01.926Z,10.83
2022-09-19T02:37:08.578Z,8.57
2022-09-19T02:39:58.363Z,10.70
2022-09-19T02:42:35.151Z,7.77
2022-09-19T02:45:26.759Z,7.93
2022-09-19T02:48:21.801Z,8.97
2022-09-19T02:51:34.696Z,6.67
2022-09-19T02:54:19.876Z,6.83
2022-09-19T02:56:50.418Z,8.47
2022-09-19T02:59:24.594Z,6.27
2022-09-19T03:01:58.334Z,6.53
2022-09-19T03:04:33.812Z,7.63
2022-09-19T03:07:15.555Z,10.70
2022-09-19T03:09:51.760Z,9.50
2022-09-19T03:12:47.178Z,9.93
2022-09-19T03:15:14.827Z,13.83
2022-09-19T03:17:52.334Z,6.93
2022-09-19T03:20:23.206Z,9.33
2022-09-19T03:22:51.002Z,8.23
2022-09-19T03:25:18.164Z,10.00
2022-09-19T03:27:45.522Z,13.23
2022-09-19T03:30:18.146Z,7.37
2022-09-19T03:32:46.730Z,5.70
2022-09-19T03:35:15.685Z,11.63
2022-09-19T03:37:43.143Z,7.70
2022-09-19T03:40:12.125Z,7.70
2022-09-19T03:42:39.630Z,9.23
2022-09-19T03:45:07.475Z,10.60
2022-09-19T03:47:34.470Z,8.97
2022-09-19T03:50:01.423Z,7.23
2022-09-19T03:52:28.410Z,7.20
2022-09-19T03:54:59.171Z,5.63
2022-09-19T03:57:26.067Z,9.27
2022-09-19T03:59:53.007Z,8.07
2022-09-19T04:02:19.961Z,8.53
2022-09-19T04:04:46.921Z,11.60
2022-09-19T04:07:14.356Z,13.63
2022-09-19T04:09:41.245Z,10.90
2022-09-19T04:12:08.265Z,13.30
2022-09-19T04:14:36.606Z,27.03
2022-09-19T04:19:53.884Z,29.20
2022-09-19T04:22:23.064Z,22.23
2022-09-19T04:24:50.387Z,25.43
2022-09-19T04:27:20.811Z,21.10
2022-09-19T04:29:48.667Z,13.30
2022-09-19T04:32:17.184Z,14.67
2022-09-19T04:34:44.984Z,11.20
2022-09-19T04:37:16.613Z,15.57
2022-09-19T04:39:43.757Z,17.10
2022-09-19T04:42:10.863Z,7.93
2022-09-19T04:44:37.773Z,12.63
2022-09-19T04:47:07.287Z,10.83
2022-09-19T04:49:40.705Z,10.73
2022-09-19T04:52:13.456Z,10.07
2022-09-19T04:54:42.593Z,11.37
2022-09-19T04:57:10.432Z,10.63
2022-09-19T04:59:37.920Z,9.73
2022-09-19T05:02:08.310Z,11.70
2022-09-19T05:04:36.677Z,14.10
2022-09-19T05:07:03.930Z,10.97
2022-09-19T05:09:30.977Z,12.17
2022-09-19T05:11:58.175Z,12.90
2022-09-19T05:14:27.774Z,9.27
2022-09-19T05:16:55.454Z,11.30
2022-09-19T05:19:23.510Z,11.63
2022-09-19T05:21:51.520Z,13.30
2022-09-19T05:24:20.079Z,12.97
2022-09-19T05:26:48.183Z,13.80
2022-09-19T05:29:15.920Z,18.77
2022-09-19T05:31:46.836Z,11.30
2022-09-19T05:34:14.980Z,13.13
2022-09-19T05:36:43.137Z,10.97
2022-09-19T05:39:10.887Z,15.50
2022-09-19T05:41:39.281Z,13.17
2022-09-19T05:44:06.260Z,11.17
2022-09-19T05:46:33.264Z,15.00
2022-09-19T05:49:00.454Z,12.10
2022-09-19T05:51:27.338Z,13.90
2022-09-19T05:53:54.738Z,13.90
2022-09-19T05:56:22.800Z,22.50
2022-09-19T05:58:54.268Z,18.20
2022-09-19T06:01:21.800Z,13.17
2022-09-19T06:03:49.241Z,12.00
2022-09-19T06:06:21.908Z,15.70
2022-09-19T06:09:00.044Z,11.50
2022-09-19T06:11:27.614Z,13.30
2022-09-19T06:14:13.159Z,13.37
2022-09-19T06:16:42.781Z,17.77
2022-09-19T06:19:10.034Z,14.53
2022-09-19T06:21:37.003Z,15.43
2022-09-19T06:24:04.110Z,15.53
2022-09-19T06:26:31.055Z,12.97
2022-09-19T06:28:58.168Z,10.20
2022-09-19T06:31:25.125Z,13.97
2022-09-19T06:33:52.058Z,14.97
2022-09-19T06:36:19.115Z,17.67
2022-09-19T06:38:46.085Z,13.33
2022-09-19T06:41:14.422Z,13.03
2022-09-19T06:43:41.328Z,19.87
2022-09-19T06:46:09.375Z,15.03
2022-09-19T06:48:36.464Z,12.90
2022-09-19T06:51:04.178Z,15.77
2022-09-19T06:53:31.411Z,14.07
2022-09-19T06:55:58.402Z,15.10
2022-09-19T06:58:27.545Z,14.37
2022-09-19T07:00:55.406Z,13.70
2022-09-19T07:03:22.906Z,14.17
2022-09-19T07:05:52.370Z,13.13
2022-09-19T07:08:19.400Z,15.50
2022-09-19T07:10:46.312Z,14.10
2022-09-19T07:13:17.869Z,15.47
2022-09-19T07:15:45.159Z,14.47
2022-09-19T07:18:14.274Z,15.20
2022-09-19T07:20:42.563Z,18.47
2022-09-19T07:23:20.731Z,18.97
2022-09-19T07:25:49.542Z,20.00
2022-09-19T07:28:19.060Z,15.27
2022-09-19T07:30:51.613Z,16.07
2022-09-19T07:33:21.294Z,18.27
2022-09-19T07:35:48.390Z,16.07
2022-09-19T07:38:18.334Z,17.27
2022-09-19T07:40:46.214Z,18.17
2022-09-19T07:43:15.501Z,18.37
2022-09-19T07:45:48.986Z,15.07
2022-09-19T07:48:17.278Z,15.17
2022-09-19T07:50:49.540Z,13.40
2022-09-19T07:53:23.581Z,14.73
2022-09-19T07:55:53.247Z,15.27
2022-09-19T07:58:23.923Z,14.40
2022-09-19T08:00:51.880Z,11.47
2022-09-19T08:03:21.434Z,11.70
2022-09-19T08:05:51.537Z,12.83
2022-09-19T08:08:21.416Z,9.63
2022-09-19T08:10:48.762Z,14.77
2022-09-19T08:13:18.887Z,13.03
2022-09-19T08:15:49.701Z,13.67
2022-09-19T08:18:24.868Z,12.03
2022-09-19T08:20:51.826Z,12.87
2022-09-19T08:23:21.753Z,9.70
2022-09-19T08:25:52.729Z,12.93
2022-09-19T08:28:23.687Z,10.47
2022-09-19T08:30:50.737Z,13.17
2022-09-19T08:33:19.275Z,11.77
2022-09-19T08:35:46.179Z,10.03
2022-09-19T08:38:14.367Z,8.93
2022-09-19T08:40:41.369Z,13.07
2022-09-19T08:43:44.902Z,9.27
2022-09-19T08:46:40.406Z,13.83
2022-09-19T08:49:26.572Z,10.30
2022-09-19T08:52:37.957Z,8.60
2022-09-19T08:55:13.815Z,11.30
2022-09-19T08:57:52.926Z,12.67
2022-09-19T09:00:23.999Z,11.00
2022-09-19T09:03:08.847Z,9.97
2022-09-19T09:06:19.743Z,9.03
2022-09-19T09:09:05.093Z,11.07
2022-09-19T09:12:13.699Z,12.97
2022-09-19T09:15:37.416Z,9.67
2022-09-19T09:18:48.820Z,10.87
2022-09-19T09:21:38.828Z,9.73
2022-09-19T09:24:34.176Z,11.10
2022-09-19T09:27:06.689Z,9.52
2022-09-19T09:29:44.483Z,8.93
2022-09-19T09:32:24.233Z,8.53
2022-09-19T09:35:01.722Z,6.70
2022-09-19T09:37:45.405Z,9.97
2022-09-19T09:40:45.712Z,8.10
2022-09-19T09:43:15.864Z,6.33
2022-09-19T09:45:50.316Z,7.50
2022-09-19T09:48:34.555Z,8.97
2022-09-19T09:51:01.717Z,6.50
2022-09-19T09:54:03.710Z,6.80
2022-09-19T09:56:50.916Z,11.43
2022-09-19T10:00:32.697Z,8.07
2022-09-19T10:03:32.200Z,6.75
2022-09-19T10:06:13.625Z,6.05
2022-09-19T10:09:18.925Z,6.03
2022-09-19T10:14:47.643Z,7.95
2022-09-19T10:17:20.628Z,9.75
2022-09-19T10:19:57.903Z,9.43
2022-09-19T10:22:25.076Z,9.40
2022-09-19T10:24:56.692Z,6.83
2022-09-19T10:27:32.999Z,6.93
2022-09-19T10:30:18.005Z,6.87
2022-09-19T10:32:47.432Z,8.53
2022-09-19T10:35:35.544Z,8.10
2022-09-19T10:38:14.820Z,7.05
2022-09-19T10:40:57.522Z,7.03
2022-09-19T10:43:40.514Z,7.13
2022-09-19T10:46:16.092Z,7.20
2022-09-19T10:48:57.500Z,7.93
2022-09-19T10:51:44.820Z,7.27
2022-09-19T10:54:41.366Z,10.50
2022-09-19T10:57:45.404Z,7.47
2022-09-19T11:00:59.843Z,9.53
2022-09-19T11:03:32.730Z,6.87
2022-09-19T11:06:24.253Z,10.27
2022-09-19T11:08:54.422Z,7.73
2022-09-19T11:11:49.213Z,7.10
2022-09-19T11:14:32.543Z,7.35
2022-09-19T11:17:19.685Z,9.13
2022-09-19T11:20:34.089Z,8.30
2022-09-19T11:23:53.484Z,6.50
2022-09-19T11:26:39.985Z,9.00
2022-09-19T11:29:36.858Z,8.63
2022-09-19T11:32:56.384Z,5.65
2022-09-19T11:35:30.089Z,10.10
2022-09-19T11:41:52.966Z,7.00
2022-09-19T11:44:40.341Z,6.85
2022-09-19T11:47:26.920Z,4.57
2022-09-19T11:50:05.829Z,5.45
2022-09-19T11:53:02.567Z,5.28
2022-09-19T11:56:01.225Z,7.53
2022-09-19T11:58:49.229Z,6.10
2022-09-19T12:01:46.492Z,5.93
2022-09-19T12:04:56.932Z,5.63
2022-09-19T12:07:58.243Z,6.18
2022-09-19T12:11:10.248Z,4.55
2022-09-19T12:13:48.833Z,4.68
2022-09-19T12:16:38.399Z,6.15
2022-09-19T12:19:31.094Z,6.95
2022-09-19T12:22:16.778Z,6.10
2022-09-19T12:24:54.630Z,4.57
2022-09-19T12:27:43.976Z,4.80
2022-09-19T12:30:19.801Z,5.70
2022-09-19T12:33:16.370Z,6.13
2022-09-19T12:36:03.402Z,5.13
2022-09-19T12:38:56.895Z,5.00
2022-09-19T12:41:58.754Z,7.25
2022-09-19T12:45:04.504Z,4.25
2022-09-19T12:47:40.955Z,7.60
2022-09-19T12:50:37.312Z,5.05
2022-09-19T12:53:24.888Z,6.10
2022-09-19T12:56:08.141Z,4.70
2022-09-19T12:59:09.293Z,4.45
2022-09-19T13:01:46.291Z,3.60
2022-09-19T13:04:38.655Z,4.35
2022-09-19T13:07:16.935Z,3.17
2022-09-19T13:10:31.015Z,6.00
2022-09-19T13:13:16.657Z,5.65
2022-09-19T13:15:55.391Z,4.85
2022-09-19T13:18:44.003Z,6.97
2022-09-19T13:21:47.539Z,5.55
2022-09-19T13:24:15.586Z,3.92
2022-09-19T13:26:42.550Z,4.60
2022-09-19T13:29:27.971Z,3.85
2022-09-19T13:31:57.688Z,3.70
2022-09-19T13:35:15.512Z,4.03
2022-09-19T13:37:45.357Z,8.50
2022-09-19T13:40:43.166Z,4.95
2022-09-19T13:43:43.529Z,4.85
2022-09-19T13:46:32.632Z,4.50
2022-09-19T13:49:10.115Z,5.70
2022-09-19T13:51:43.050Z,5.78
2022-09-19T13:54:21.194Z,6.22
2022-09-19T13:57:03.143Z,6.45
2022-09-19T13:59:51.226Z,4.75
2022-09-19T14:02:25.381Z,7.78
2022-09-19T14:05:12.490Z,6.43
2022-09-19T14:10:50.159Z,6.00
2022-09-19T14:13:37.684Z,5.22
2022-09-19T14:16:31.364Z,5.15
2022-09-19T14:18:59.012Z,9.60
2022-09-19T14:21:32.362Z,7.57
2022-09-19T14:24:22.528Z,7.93
2022-09-19T14:27:22.505Z,8.40
2022-09-19T14:30:46.768Z,6.22
2022-09-19T14:33:59.429Z,5.13
2022-09-19T14:36:56.976Z,5.68
2022-09-19T14:39:44.422Z,7.88
2022-09-19T14:42:55.100Z,6.53
2022-09-19T14:45:50.944Z,7.65
2022-09-19T14:48:35.243Z,5.17
2022-09-19T14:51:32.977Z,10.52
2022-09-19T14:54:29.329Z,5.75
2022-09-19T14:57:02.649Z,6.35
2022-09-19T14:59:37.525Z,7.55
2022-09-19T15:02:25.833Z,7.15
2022-09-19T15:05:01.431Z,6.75
2022-09-19T15:07:32.224Z,5.60
2022-09-19T15:10:00.337Z,6.72
2022-09-19T15:12:42.416Z,6.97
2022-09-19T15:15:16.525Z,5.85
2022-09-19T15:17:43.538Z,7.77
2022-09-19T15:20:17.142Z,7.97
2022-09-19T15:22:53.934Z,8.18
2022-09-19T15:25:29.706Z,6.40
2022-09-19T15:28:01.838Z,6.63
2022-09-19T15:30:33.225Z,8.88
2022-09-19T15:33:12.617Z,6.82
2022-09-19T15:35:43.587Z,8.65
2022-09-19T15:38:35.936Z,7.60
2022-09-19T15:41:08.799Z,8.00
2022-09-19T15:43:43.434Z,8.35
2022-09-19T15:46:40.719Z,6.28
2022-09-19T15:49:31.817Z,6.35
2022-09-19T15:52:02.592Z,7.15
2022-09-19T15:54:31.746Z,9.43
2022-09-19T15:57:13.023Z,6.90
2022-09-19T15:59:49.064Z,10.50
2022-09-19T16:02:21.483Z,7.18
2022-09-19T16:05:16.112Z,5.85
2022-09-19T16:08:08.057Z,7.68
2022-09-19T16:10:53.434Z,6.88
2022-09-19T16:13:35.041Z,6.20
2022-09-19T16:16:27.899Z,10.88
2022-09-19T16:18:56.589Z,7.60
2022-09-19T16:21:37.983Z,9.98
2022-09-19T16:24:18.258Z,7.43
2022-09-19T16:26:52.646Z,7.78
2022-09-19T16:29:20.304Z,7.87
2022-09-19T16:31:48.093Z,6.18
2022-09-19T16:34:42.446Z,6.68
2022-09-19T16:37:27.106Z,5.85
2022-09-19T16:39:57.741Z,9.20
2022-09-19T16:42:34.114Z,8.07
2022-09-19T16:45:21.662Z,8.75
2022-09-19T16:47:50.251Z,6.77
2022-09-19T16:50:25.033Z,18.77
2022-09-19T16:52:52.637Z,9.18
2022-09-19T16:55:42.037Z,11.93
2022-09-19T16:58:14.864Z,9.68
2022-09-19T17:00:47.387Z,9.70
2022-09-19T17:03:18.506Z,9.10
2022-09-19T17:05:45.592Z,10.87
2022-09-19T17:08:12.897Z,8.93
2022-09-19T17:10:42.009Z,9.60
2022-09-19T17:13:15.074Z,14.27
2022-09-19T17:15:48.455Z,11.67
2022-09-19T17:18:15.435Z,9.52
2022-09-19T17:20:43.730Z,10.10
2022-09-19T17:23:16.776Z,9.48
2022-09-19T17:25:55.299Z,8.73
2022-09-19T17:28:28.665Z,9.47
2022-09-19T17:30:58.014Z,12.13
2022-09-19T17:33:28.331Z,12.77
2022-09-19T17:36:02.548Z,9.67
2022-09-19T17:38:31.408Z,9.00
2022-09-19T17:41:00.688Z,11.00
2022-09-19T17:43:28.459Z,11.00
2022-09-19T17:46:01.480Z,11.83
2022-09-19T17:48:29.572Z,12.38
2022-09-19T17:50:57.002Z,11.03
2022-09-19T17:53:24.233Z,10.40
2022-09-19T17:55:51.175Z,10.20
2022-09-19T17:58:18.201Z,10.77
2022-09-19T18:00:45.223Z,10.63
2022-09-19T18:03:18.199Z,13.60
2022-09-19T18:06:05.650Z,10.33
2022-09-19T18:08:32.930Z,8.90
2022-09-19T18:11:05.371Z,9.15
2022-09-19T18:13:40.098Z,12.07
2022-09-19T18:16:13.775Z,9.50
2022-09-19T18:18:42.103Z,10.70
2022-09-19T18:21:09.721Z,14.20
2022-09-19T18:23:39.147Z,8.68
2022-09-19T18:26:08.243Z,8.20
2022-09-19T18:28:36.215Z,11.37
2022-09-19T18:31:10.617Z,12.13
2022-09-19T18:33:40.546Z,11.93
2022-09-19T18:36:26.823Z,13.70
2022-09-19T18:38:54.822Z,12.03
2022-09-19T18:41:25.108Z,9.83
2022-09-19T18:43:53.498Z,13.13
2022-09-19T18:46:24.103Z,16.35
2022-09-19T18:48:55.301Z,19.93
2022-09-19T18:51:26.922Z,16.73
2022-09-19T18:53:58.197Z,13.67
2022-09-19T18:56:25.270Z,14.03
2022-09-19T18:58:57.379Z,13.47
2022-09-19T19:01:26.722Z,13.47
2022-09-19T19:03:59.557Z,13.80
2022-09-19T19:06:28.288Z,15.63
2022-09-19T19:08:57.742Z,13.00
2022-09-19T19:11:37.018Z,13.80
2022-09-19T19:14:04.423Z,12.98
2022-09-19T19:16:33.439Z,16.33
2022-09-19T19:19:02.274Z,18.90
2022-09-19T19:21:36.344Z,16.60
2022-09-19T19:24:05.684Z,13.57
2022-09-19T19:26:35.510Z,16.85
2022-09-19T19:29:02.556Z,13.47
2022-09-19T19:31:32.323Z,16.50
2022-09-19T19:34:00.652Z,16.20
2022-09-19T19:36:27.617Z,16.90
2022-09-19T19:38:55.178Z,13.87
2022-09-19T19:41:25.244Z,14.80
2022-09-19T19:43:54.669Z,15.43
2022-09-19T19:46:25.339Z,15.10
2022-09-19T19:49:00.786Z,15.85
2022-09-19T19:51:31.034Z,17.27
2022-09-19T19:53:59.298Z,16.80
2022-09-19T19:56:36.280Z,18.10
2022-09-19T19:59:04.086Z,17.73
2022-09-19T20:01:33.972Z,18.67
2022-09-19T20:04:08.211Z,15.25
2022-09-19T20:06:49.067Z,13.82
2022-09-19T20:09:16.721Z,15.73
2022-09-19T20:11:44.803Z,16.20
2022-09-19T20:14:15.798Z,16.48
2022-09-19T20:16:45.662Z,17.97
2022-09-19T20:19:16.391Z,18.45
2022-09-19T20:21:46.609Z,15.80
2022-09-19T20:24:18.893Z,20.25
2022-09-19T20:26:47.556Z,14.70
2022-09-19T20:29:20.374Z,14.68
2022-09-19T20:31:47.594Z,14.65
2022-09-19T20:34:14.894Z,15.37
2022-09-19T20:36:42.185Z,15.75
2022-09-19T20:39:09.699Z,18.53
2022-09-19T20:41:44.429Z,23.40
2022-09-19T20:44:11.939Z,15.03
2022-09-19T20:46:40.196Z,16.60
2022-09-19T20:49:10.867Z,15.10
2022-09-19T20:51:39.914Z,13.20
2022-09-19T20:54:20.632Z,14.18
2022-09-19T20:56:49.201Z,16.10
2022-09-19T20:59:18.363Z,15.50
2022-09-19T21:01:50.221Z,16.35
2022-09-19T21:04:17.814Z,15.30
2022-09-19T21:06:44.757Z,15.98
2022-09-19T21:09:13.521Z,16.53
2022-09-19T21:11:40.610Z,15.13
2022-09-19T21:14:07.609Z,14.20
2022-09-19T21:16:34.893Z,17.63
2022-09-19T21:19:02.112Z,17.13
2022-09-19T21:21:32.050Z,14.82
2022-09-19T21:23:59.161Z,17.73
2022-09-19T21:26:29.023Z,17.97
2022-09-19T21:29:03.132Z,15.98
2022-09-19T21:31:32.449Z,16.75
2022-09-19T21:34:01.883Z,16.02
2022-09-19T21:36:32.261Z,15.00
2022-09-19T21:39:00.170Z,14.40
2022-09-19T21:41:31.989Z,15.68
2022-09-19T21:44:01.928Z,14.67
2022-09-19T21:46:33.608Z,16.95
2022-09-19T21:49:01.209Z,14.65
2022-09-19T21:51:37.940Z,15.13
2022-09-19T21:54:07.690Z,15.30
2022-09-19T21:56:35.533Z,14.87
2022-09-19T21:59:05.263Z,14.07
2022-09-19T22:01:35.814Z,15.82
2022-09-19T22:04:03.887Z,14.13
2022-09-19T22:06:32.049Z,14.97
2022-09-19T22:09:00.635Z,18.03
2022-09-19T22:11:32.388Z,15.03
2022-09-19T22:14:00.584Z,16.20
2022-09-19T22:16:30.987Z,15.60
2022-09-19T22:18:58.447Z,14.73
2022-09-19T22:21:25.707Z,14.80
2022-09-19T22:23:55.887Z,13.77
2022-09-19T22:26:26.785Z,13.80
2022-09-19T22:28:55.458Z,18.57
2022-09-19T22:31:24.945Z,16.40
2022-09-19T22:33:53.928Z,12.60
2022-09-19T22:36:27.574Z,13.17
2022-09-19T22:38:57.025Z,11.80
2022-09-19T22:41:27.151Z,15.10
2022-09-19T22:43:54.921Z,12.77
2022-09-19T22:46:24.858Z,11.33
2022-09-19T22:48:52.127Z,17.83
2022-09-19T22:51:22.374Z,11.17
2022-09-19T22:53:50.092Z,12.67
2022-09-19T22:56:23.470Z,13.57
2022-09-19T22:58:51.384Z,13.50
2022-09-19T23:01:25.482Z,14.73
2022-09-19T23:03:56.118Z,12.03
2022-09-19T23:06:32.778Z,12.43
2022-09-19T23:09:03.350Z,12.50
2022-09-19T23:11:33.175Z,11.83
2022-09-19T23:14:03.393Z,12.27
2022-09-19T23:16:39.883Z,11.40
2022-09-19T23:19:26.360Z,12.60
2022-09-19T23:21:58.492Z,11.20
2022-09-19T23:24:30.634Z,10.53
2022-09-19T23:27:00.444Z,10.53
2022-09-19T23:29:28.342Z,11.70
2022-09-19T23:31:55.453Z,10.67
2022-09-19T23:34:23.362Z,11.07
2022-09-19T23:36:53.212Z,11.50
2022-09-19T23:39:20.275Z,11.33
2022-09-19T23:41:47.488Z,10.43
2022-09-19T23:44:14.648Z,13.90
2022-09-19T23:46:41.586Z,13.80
2022-09-19T23:49:08.744Z,9.97
2022-09-19T23:51:36.144Z,9.87
2022-09-19T23:54:04.018Z,16.40
2022-09-19T23:56:32.764Z,13.07
2022-09-19T23:59:00.450Z,10.53
